Weinert, Texas
Current Conditions -  °F | °C
As of 4:15 AM on Friday 24 Oct 2014 (Local Time) from KBKD Reporting Station
Clear Clear  
Wind Chill: 65°   Ceiling: Unl
Heat Index: 65°   Visibility: 7mi
Dew Point: 59°   Wind: 6mph
Humidity: 79%   Direction: 170°S
Pressure: 30.1"   Gusts: NA
Location:  33.32°N, 99.67°W
Report Text: KBKD 240915Z AUTO 17005KT 7SM CLR 18/15 A3010 RMK AO2 T01840148
Loading
Personal Weather Stations






























Interactive Weather Map
Tropical Storm Tracking
New forecast layout! Learn more

10-Day Weather Forecast

Advertisements
Track Severe Weather on mobile